Terminal Aerodrome Forecast
Issued by NWS Pocatello, ID

Home | Current Version | Previous Version | Text Only | Print | Product List | Glossary On
Versions: 1 2 3 4 5 6 7 8 9 10 11 12 13
000
FTUS45 KPIH 242322
TAFIDA
TAF
KIDA 242322Z 2500/2524 22019G26KT P6SM VCSH BKN060
     FM250200 21012KT P6SM VCSH BKN100
     FM250900 21008KT P6SM OVC100
     FM251900 24010KT P6SM -RA SCT015 BKN035 OVC100=

USA.gov is the U.S. government's official web portal to all federal, state and local government web resources and services.